sensor_id;sensor_type;location;lat;lon;timestamp;P1;durP1;ratioP1;P2;durP2;ratioP2
78053;SDS011;67726;45.636;11.752;2024-02-16T00:00:05;185.32;;;70.35;;
78053;SDS011;67726;45.636;11.752;2024-02-16T00:02:31;161.70;;;68.00;;
78053;SDS011;67726;45.636;11.752;2024-02-16T00:04:57;174.95;;;66.32;;
78053;SDS011;67726;45.636;11.752;2024-02-16T00:07:23;147.68;;;67.15;;
78053;SDS011;67726;45.636;11.752;2024-02-16T00:09:49;155.30;;;66.15;;
78053;SDS011;67726;45.636;11.752;2024-02-16T00:12:15;162.03;;;66.47;;
78053;SDS011;67726;45.636;11.752;2024-02-16T00:14:41;150.27;;;65.05;;
78053;SDS011;67726;45.636;11.752;2024-02-16T00:17:07;133.18;;;65.30;;
78053;SDS011;67726;45.636;11.752;2024-02-16T00:19:35;138.93;;;62.23;;
78053;SDS011;67726;45.636;11.752;2024-02-16T00:22:01;143.68;;;67.30;;
78053;SDS011;67726;45.636;11.752;2024-02-16T00:24:27;129.02;;;65.38;;
78053;SDS011;67726;45.636;11.752;2024-02-16T00:26:52;125.70;;;65.10;;
78053;SDS011;67726;45.636;11.752;2024-02-16T00:29:18;116.10;;;62.40;;
78053;SDS011;67726;45.636;11.752;2024-02-16T00:31:46;113.88;;;62.20;;
78053;SDS011;67726;45.636;11.752;2024-02-16T00:34:12;121.23;;;62.37;;
78053;SDS011;67726;45.636;11.752;2024-02-16T00:36:38;116.17;;;61.23;;
78053;SDS011;67726;45.636;11.752;2024-02-16T00:39:03;119.00;;;61.60;;
78053;SDS011;67726;45.636;11.752;2024-02-16T00:41:29;114.95;;;62.15;;
78053;SDS011;67726;45.636;11.752;2024-02-16T00:43:55;119.10;;;63.70;;
78053;SDS011;67726;45.636;11.752;2024-02-16T00:46:22;115.75;;;61.13;;
78053;SDS011;67726;45.636;11.752;2024-02-16T00:48:48;118.38;;;60.55;;
78053;SDS011;67726;45.636;11.752;2024-02-16T00:51:15;121.33;;;60.60;;
78053;SDS011;67726;45.636;11.752;2024-02-16T00:53:41;118.70;;;61.67;;
78053;SDS011;67726;45.636;11.752;2024-02-16T00:56:06;120.88;;;63.55;;
78053;SDS011;67726;45.636;11.752;2024-02-16T00:58:33;119.03;;;62.83;;
78053;SDS011;67726;45.636;11.752;2024-02-16T01:00:59;121.18;;;62.35;;
78053;SDS011;67726;45.636;11.752;2024-02-16T01:03:25;111.15;;;61.28;;
78053;SDS011;67726;45.636;11.752;2024-02-16T01:05:51;117.00;;;61.33;;
78053;SDS011;67726;45.636;11.752;2024-02-16T01:08:18;110.90;;;61.07;;
78053;SDS011;67726;45.636;11.752;2024-02-16T01:10:43;116.63;;;62.20;;
78053;SDS011;67726;45.636;11.752;2024-02-16T01:13:09;120.53;;;61.17;;
78053;SDS011;67726;45.636;11.752;2024-02-16T01:15:35;111.77;;;59.23;;
78053;SDS011;67726;45.636;11.752;2024-02-16T01:18:02;114.63;;;59.13;;
78053;SDS011;67726;45.636;11.752;2024-02-16T01:20:29;120.38;;;61.47;;
78053;SDS011;67726;45.636;11.752;2024-02-16T01:22:56;110.37;;;57.73;;
78053;SDS011;67726;45.636;11.752;2024-02-16T01:25:22;112.07;;;57.13;;
78053;SDS011;67726;45.636;11.752;2024-02-16T01:27:47;112.47;;;58.38;;
78053;SDS011;67726;45.636;11.752;2024-02-16T01:30:13;107.07;;;56.53;;
78053;SDS011;67726;45.636;11.752;2024-02-16T01:32:40;105.95;;;55.65;;
78053;SDS011;67726;45.636;11.752;2024-02-16T01:35:06;99.95;;;54.10;;
78053;SDS011;67726;45.636;11.752;2024-02-16T01:37:32;103.93;;;55.15;;
78053;SDS011;67726;45.636;11.752;2024-02-16T01:39:58;99.97;;;50.43;;
78053;SDS011;67726;45.636;11.752;2024-02-16T01:42:24;90.82;;;49.20;;
78053;SDS011;67726;45.636;11.752;2024-02-16T01:44:50;100.77;;;48.43;;
78053;SDS011;67726;45.636;11.752;2024-02-16T01:47:16;107.80;;;47.97;;
78053;SDS011;67726;45.636;11.752;2024-02-16T01:49:43;97.63;;;49.78;;
78053;SDS011;67726;45.636;11.752;2024-02-16T01:52:09;106.72;;;49.83;;
78053;SDS011;67726;45.636;11.752;2024-02-16T01:54:35;111.47;;;48.07;;
78053;SDS011;67726;45.636;11.752;2024-02-16T01:57:02;91.72;;;47.42;;
78053;SDS011;67726;45.636;11.752;2024-02-16T01:59:30;88.22;;;46.83;;
78053;SDS011;67726;45.636;11.752;2024-02-16T02:01:58;81.18;;;45.45;;
78053;SDS011;67726;45.636;11.752;2024-02-16T02:04:24;87.47;;;47.63;;
78053;SDS011;67726;45.636;11.752;2024-02-16T02:06:51;92.45;;;46.90;;
78053;SDS011;67726;45.636;11.752;2024-02-16T02:09:17;86.65;;;47.33;;
78053;SDS011;67726;45.636;11.752;2024-02-16T02:11:43;97.03;;;48.93;;
78053;SDS011;67726;45.636;11.752;2024-02-16T02:14:09;99.63;;;51.10;;
78053;SDS011;67726;45.636;11.752;2024-02-16T02:16:35;106.78;;;51.03;;
78053;SDS011;67726;45.636;11.752;2024-02-16T02:19:02;96.53;;;50.05;;
78053;SDS011;67726;45.636;11.752;2024-02-16T02:21:28;108.03;;;51.77;;
78053;SDS011;67726;45.636;11.752;2024-02-16T02:23:53;100.32;;;49.55;;
78053;SDS011;67726;45.636;11.752;2024-02-16T02:26:19;109.77;;;52.63;;
78053;SDS011;67726;45.636;11.752;2024-02-16T02:28:46;116.05;;;51.55;;
78053;SDS011;67726;45.636;11.752;2024-02-16T02:31:11;102.03;;;52.63;;
78053;SDS011;67726;45.636;11.752;2024-02-16T02:33:37;111.63;;;52.38;;
78053;SDS011;67726;45.636;11.752;2024-02-16T02:36:03;101.88;;;49.22;;
78053;SDS011;67726;45.636;11.752;2024-02-16T02:38:30;110.38;;;53.85;;
78053;SDS011;67726;45.636;11.752;2024-02-16T02:40:55;108.93;;;50.00;;
78053;SDS011;67726;45.636;11.752;2024-02-16T02:43:21;104.05;;;50.83;;
78053;SDS011;67726;45.636;11.752;2024-02-16T02:45:48;112.10;;;48.42;;
78053;SDS011;67726;45.636;11.752;2024-02-16T02:48:14;126.83;;;48.73;;
78053;SDS011;67726;45.636;11.752;2024-02-16T02:50:39;112.10;;;50.90;;
78053;SDS011;67726;45.636;11.752;2024-02-16T02:53:05;107.23;;;50.37;;
78053;SDS011;67726;45.636;11.752;2024-02-16T02:55:30;109.75;;;49.60;;
78053;SDS011;67726;45.636;11.752;2024-02-16T02:57:56;107.40;;;48.17;;
78053;SDS011;67726;45.636;11.752;2024-02-16T03:00:23;110.65;;;49.33;;
78053;SDS011;67726;45.636;11.752;2024-02-16T03:02:48;115.97;;;47.35;;
78053;SDS011;67726;45.636;11.752;2024-02-16T03:05:14;114.00;;;45.73;;
78053;SDS011;67726;45.636;11.752;2024-02-16T03:07:40;113.30;;;46.42;;
78053;SDS011;67726;45.636;11.752;2024-02-16T03:10:06;117.17;;;48.03;;
78053;SDS011;67726;45.636;11.752;2024-02-16T03:12:34;98.22;;;43.33;;
78053;SDS011;67726;45.636;11.752;2024-02-16T03:15:00;101.38;;;45.45;;
78053;SDS011;67726;45.636;11.752;2024-02-16T03:17:26;90.43;;;45.53;;
78053;SDS011;67726;45.636;11.752;2024-02-16T03:19:51;90.97;;;45.83;;
78053;SDS011;67726;45.636;11.752;2024-02-16T03:22:17;86.90;;;44.63;;
78053;SDS011;67726;45.636;11.752;2024-02-16T03:24:43;90.28;;;43.33;;
78053;SDS011;67726;45.636;11.752;2024-02-16T03:27:10;92.95;;;45.97;;
78053;SDS011;67726;45.636;11.752;2024-02-16T03:29:36;85.95;;;43.95;;
78053;SDS011;67726;45.636;11.752;2024-02-16T03:32:02;86.27;;;43.00;;
78053;SDS011;67726;45.636;11.752;2024-02-16T03:34:28;85.38;;;44.75;;
78053;SDS011;67726;45.636;11.752;2024-02-16T03:36:53;96.20;;;46.17;;
78053;SDS011;67726;45.636;11.752;2024-02-16T03:39:19;90.57;;;44.88;;
78053;SDS011;67726;45.636;11.752;2024-02-16T03:41:45;92.73;;;44.67;;
78053;SDS011;67726;45.636;11.752;2024-02-16T03:44:13;91.63;;;45.72;;
78053;SDS011;67726;45.636;11.752;2024-02-16T03:46:40;76.80;;;42.50;;
78053;SDS011;67726;45.636;11.752;2024-02-16T03:49:07;86.07;;;43.83;;
78053;SDS011;67726;45.636;11.752;2024-02-16T03:51:32;80.53;;;44.60;;
78053;SDS011;67726;45.636;11.752;2024-02-16T03:53:58;89.22;;;44.58;;
78053;SDS011;67726;45.636;11.752;2024-02-16T03:56:24;88.17;;;44.43;;
78053;SDS011;67726;45.636;11.752;2024-02-16T03:58:50;78.75;;;44.20;;
78053;SDS011;67726;45.636;11.752;2024-02-16T04:01:15;82.13;;;44.77;;
78053;SDS011;67726;45.636;11.752;2024-02-16T04:03:41;81.57;;;43.20;;
78053;SDS011;67726;45.636;11.752;2024-02-16T04:06:07;85.93;;;44.53;;
78053;SDS011;67726;45.636;11.752;2024-02-16T04:08:33;81.60;;;42.38;;
78053;SDS011;67726;45.636;11.752;2024-02-16T04:10:58;81.07;;;44.30;;
78053;SDS011;67726;45.636;11.752;2024-02-16T04:13:24;77.22;;;44.55;;
78053;SDS011;67726;45.636;11.752;2024-02-16T04:15:50;82.53;;;45.13;;
78053;SDS011;67726;45.636;11.752;2024-02-16T04:18:15;80.53;;;43.83;;
78053;SDS011;67726;45.636;11.752;2024-02-16T04:20:41;85.53;;;45.47;;
78053;SDS011;67726;45.636;11.752;2024-02-16T04:23:07;89.27;;;46.27;;
78053;SDS011;67726;45.636;11.752;2024-02-16T04:25:33;85.13;;;42.55;;
78053;SDS011;67726;45.636;11.752;2024-02-16T04:27:58;90.07;;;44.28;;
78053;SDS011;67726;45.636;11.752;2024-02-16T04:30:24;86.57;;;43.10;;
78053;SDS011;67726;45.636;11.752;2024-02-16T04:32:50;85.85;;;44.45;;
78053;SDS011;67726;45.636;11.752;2024-02-16T04:35:15;88.63;;;48.20;;
78053;SDS011;67726;45.636;11.752;2024-02-16T04:37:41;97.63;;;48.20;;
78053;SDS011;67726;45.636;11.752;2024-02-16T04:40:07;107.97;;;51.57;;
78053;SDS011;67726;45.636;11.752;2024-02-16T04:42:33;107.40;;;49.67;;
78053;SDS011;67726;45.636;11.752;2024-02-16T04:44:59;101.90;;;46.28;;
78053;SDS011;67726;45.636;11.752;2024-02-16T04:47:25;97.17;;;46.27;;
78053;SDS011;67726;45.636;11.752;2024-02-16T04:49:51;92.15;;;43.40;;
78053;SDS011;67726;45.636;11.752;2024-02-16T04:52:17;92.40;;;44.50;;
78053;SDS011;67726;45.636;11.752;2024-02-16T04:54:43;96.00;;;44.07;;
78053;SDS011;67726;45.636;11.752;2024-02-16T04:57:08;91.13;;;44.78;;
78053;SDS011;67726;45.636;11.752;2024-02-16T04:59:34;86.87;;;44.47;;
78053;SDS011;67726;45.636;11.752;2024-02-16T05:01:59;100.43;;;47.25;;
78053;SDS011;67726;45.636;11.752;2024-02-16T05:04:25;89.70;;;45.27;;
78053;SDS011;67726;45.636;11.752;2024-02-16T05:06:51;88.93;;;44.40;;
78053;SDS011;67726;45.636;11.752;2024-02-16T05:09:17;95.65;;;47.30;;
78053;SDS011;67726;45.636;11.752;2024-02-16T05:11:43;92.57;;;46.30;;
78053;SDS011;67726;45.636;11.752;2024-02-16T05:14:10;85.60;;;44.45;;
78053;SDS011;67726;45.636;11.752;2024-02-16T05:16:43;84.93;;;44.83;;
78053;SDS011;67726;45.636;11.752;2024-02-16T05:19:09;88.60;;;47.03;;
78053;SDS011;67726;45.636;11.752;2024-02-16T05:21:35;81.57;;;43.78;;
78053;SDS011;67726;45.636;11.752;2024-02-16T05:24:01;82.90;;;43.90;;
78053;SDS011;67726;45.636;11.752;2024-02-16T05:26:27;79.85;;;43.03;;
78053;SDS011;67726;45.636;11.752;2024-02-16T05:28:52;86.80;;;46.87;;
78053;SDS011;67726;45.636;11.752;2024-02-16T05:31:18;88.47;;;47.83;;
78053;SDS011;67726;45.636;11.752;2024-02-16T05:33:44;88.23;;;47.43;;
78053;SDS011;67726;45.636;11.752;2024-02-16T05:36:15;90.20;;;47.60;;
78053;SDS011;67726;45.636;11.752;2024-02-16T05:38:52;86.43;;;44.55;;
78053;SDS011;67726;45.636;11.752;2024-02-16T05:41:19;80.10;;;44.53;;
78053;SDS011;67726;45.636;11.752;2024-02-16T05:43:45;89.97;;;47.17;;
78053;SDS011;67726;45.636;11.752;2024-02-16T05:46:14;86.82;;;45.22;;
78053;SDS011;67726;45.636;11.752;2024-02-16T05:48:41;82.13;;;43.22;;
78053;SDS011;67726;45.636;11.752;2024-02-16T05:51:07;81.97;;;43.40;;
78053;SDS011;67726;45.636;11.752;2024-02-16T05:53:33;80.85;;;43.28;;
78053;SDS011;67726;45.636;11.752;2024-02-16T05:55:59;88.38;;;46.92;;
78053;SDS011;67726;45.636;11.752;2024-02-16T05:58:26;80.60;;;43.58;;
78053;SDS011;67726;45.636;11.752;2024-02-16T06:00:53;82.63;;;44.20;;
78053;SDS011;67726;45.636;11.752;2024-02-16T06:03:19;82.93;;;45.90;;
78053;SDS011;67726;45.636;11.752;2024-02-16T06:05:45;77.18;;;43.13;;
78053;SDS011;67726;45.636;11.752;2024-02-16T06:08:11;82.90;;;42.87;;
78053;SDS011;67726;45.636;11.752;2024-02-16T06:10:38;80.05;;;43.58;;
78053;SDS011;67726;45.636;11.752;2024-02-16T06:13:04;77.85;;;43.00;;
78053;SDS011;67726;45.636;11.752;2024-02-16T06:15:29;76.47;;;43.13;;
78053;SDS011;67726;45.636;11.752;2024-02-16T06:17:55;77.67;;;42.23;;
78053;SDS011;67726;45.636;11.752;2024-02-16T06:20:21;74.72;;;42.38;;
78053;SDS011;67726;45.636;11.752;2024-02-16T06:22:47;75.40;;;43.70;;
78053;SDS011;67726;45.636;11.752;2024-02-16T06:25:13;76.17;;;41.90;;
78053;SDS011;67726;45.636;11.752;2024-02-16T06:27:40;78.28;;;41.33;;
78053;SDS011;67726;45.636;11.752;2024-02-16T06:30:06;85.03;;;44.53;;
78053;SDS011;67726;45.636;11.752;2024-02-16T06:32:35;76.75;;;44.03;;
78053;SDS011;67726;45.636;11.752;2024-02-16T06:35:01;81.10;;;46.43;;
78053;SDS011;67726;45.636;11.752;2024-02-16T06:37:27;79.03;;;44.30;;
78053;SDS011;67726;45.636;11.752;2024-02-16T06:39:52;73.72;;;40.75;;
78053;SDS011;67726;45.636;11.752;2024-02-16T06:42:18;80.30;;;43.73;;
78053;SDS011;67726;45.636;11.752;2024-02-16T06:44:43;80.15;;;42.10;;
78053;SDS011;67726;45.636;11.752;2024-02-16T06:47:09;85.53;;;46.07;;
78053;SDS011;67726;45.636;11.752;2024-02-16T06:49:35;74.07;;;43.47;;
78053;SDS011;67726;45.636;11.752;2024-02-16T06:52:00;80.90;;;44.53;;
78053;SDS011;67726;45.636;11.752;2024-02-16T06:54:26;74.67;;;43.07;;
78053;SDS011;67726;45.636;11.752;2024-02-16T06:56:52;77.43;;;43.47;;
78053;SDS011;67726;45.636;11.752;2024-02-16T06:59:18;71.78;;;41.33;;
78053;SDS011;67726;45.636;11.752;2024-02-16T07:01:44;73.13;;;41.60;;
78053;SDS011;67726;45.636;11.752;2024-02-16T07:04:09;70.67;;;42.63;;
78053;SDS011;67726;45.636;11.752;2024-02-16T07:06:35;66.82;;;40.38;;
78053;SDS011;67726;45.636;11.752;2024-02-16T07:09:01;64.20;;;37.65;;
78053;SDS011;67726;45.636;11.752;2024-02-16T07:11:30;57.13;;;36.60;;
78053;SDS011;67726;45.636;11.752;2024-02-16T07:13:55;53.17;;;34.67;;
78053;SDS011;67726;45.636;11.752;2024-02-16T07:16:27;52.47;;;32.87;;
78053;SDS011;67726;45.636;11.752;2024-02-16T07:18:57;52.50;;;33.67;;
78053;SDS011;67726;45.636;11.752;2024-02-16T07:21:23;52.33;;;33.40;;
78053;SDS011;67726;45.636;11.752;2024-02-16T07:23:50;50.93;;;33.40;;
78053;SDS011;67726;45.636;11.752;2024-02-16T07:26:17;52.80;;;32.90;;
78053;SDS011;67726;45.636;11.752;2024-02-16T07:28:43;52.47;;;34.15;;
78053;SDS011;67726;45.636;11.752;2024-02-16T07:31:09;48.90;;;33.53;;
78053;SDS011;67726;45.636;11.752;2024-02-16T07:33:36;49.47;;;33.55;;
78053;SDS011;67726;45.636;11.752;2024-02-16T07:36:01;51.22;;;35.08;;
78053;SDS011;67726;45.636;11.752;2024-02-16T07:38:27;49.03;;;33.00;;
78053;SDS011;67726;45.636;11.752;2024-02-16T07:40:53;52.10;;;34.97;;
78053;SDS011;67726;45.636;11.752;2024-02-16T07:43:19;48.63;;;34.08;;
78053;SDS011;67726;45.636;11.752;2024-02-16T07:45:46;49.55;;;33.95;;
78053;SDS011;67726;45.636;11.752;2024-02-16T07:48:13;47.45;;;32.83;;
78053;SDS011;67726;45.636;11.752;2024-02-16T07:50:38;50.17;;;33.50;;
78053;SDS011;67726;45.636;11.752;2024-02-16T07:53:04;48.13;;;32.17;;
78053;SDS011;67726;45.636;11.752;2024-02-16T07:55:30;53.38;;;33.55;;
78053;SDS011;67726;45.636;11.752;2024-02-16T07:57:55;49.87;;;32.27;;
78053;SDS011;67726;45.636;11.752;2024-02-16T08:00:21;48.47;;;33.35;;
78053;SDS011;67726;45.636;11.752;2024-02-16T08:02:47;48.27;;;31.20;;
78053;SDS011;67726;45.636;11.752;2024-02-16T08:05:12;46.92;;;32.75;;
78053;SDS011;67726;45.636;11.752;2024-02-16T08:07:39;46.63;;;32.40;;
78053;SDS011;67726;45.636;11.752;2024-02-16T08:10:08;43.40;;;32.03;;
78053;SDS011;67726;45.636;11.752;2024-02-16T08:12:34;46.45;;;31.75;;
78053;SDS011;67726;45.636;11.752;2024-02-16T08:15:04;46.05;;;32.28;;
78053;SDS011;67726;45.636;11.752;2024-02-16T08:17:32;45.67;;;31.48;;
78053;SDS011;67726;45.636;11.752;2024-02-16T08:19:59;50.00;;;32.13;;
78053;SDS011;67726;45.636;11.752;2024-02-16T08:22:25;49.87;;;32.97;;
78053;SDS011;67726;45.636;11.752;2024-02-16T08:24:50;51.17;;;33.17;;
78053;SDS011;67726;45.636;11.752;2024-02-16T08:27:17;48.22;;;33.55;;
78053;SDS011;67726;45.636;11.752;2024-02-16T08:29:43;52.30;;;33.97;;
78053;SDS011;67726;45.636;11.752;2024-02-16T08:32:09;55.83;;;33.67;;
78053;SDS011;67726;45.636;11.752;2024-02-16T08:34:35;52.20;;;34.38;;
78053;SDS011;67726;45.636;11.752;2024-02-16T08:37:02;53.87;;;33.87;;
78053;SDS011;67726;45.636;11.752;2024-02-16T08:39:29;53.92;;;34.88;;
78053;SDS011;67726;45.636;11.752;2024-02-16T08:41:55;58.85;;;37.20;;
78053;SDS011;67726;45.636;11.752;2024-02-16T08:44:22;56.90;;;36.17;;
78053;SDS011;67726;45.636;11.752;2024-02-16T08:46:47;57.03;;;37.10;;
78053;SDS011;67726;45.636;11.752;2024-02-16T08:49:14;56.28;;;35.40;;
78053;SDS011;67726;45.636;11.752;2024-02-16T08:51:41;50.50;;;33.70;;
78053;SDS011;67726;45.636;11.752;2024-02-16T08:54:07;53.63;;;36.00;;
78053;SDS011;67726;45.636;11.752;2024-02-16T08:56:32;53.10;;;35.33;;
78053;SDS011;67726;45.636;11.752;2024-02-16T08:59:00;57.40;;;37.88;;
78053;SDS011;67726;45.636;11.752;2024-02-16T09:01:32;60.42;;;39.08;;
78053;SDS011;67726;45.636;11.752;2024-02-16T09:03:58;65.50;;;39.80;;
78053;SDS011;67726;45.636;11.752;2024-02-16T09:06:25;61.60;;;39.78;;
78053;SDS011;67726;45.636;11.752;2024-02-16T09:08:50;60.20;;;39.90;;
78053;SDS011;67726;45.636;11.752;2024-02-16T09:11:16;59.67;;;41.10;;
78053;SDS011;67726;45.636;11.752;2024-02-16T09:13:42;64.45;;;41.20;;
78053;SDS011;67726;45.636;11.752;2024-02-16T09:16:08;63.70;;;40.47;;
78053;SDS011;67726;45.636;11.752;2024-02-16T09:18:34;67.45;;;41.80;;
78053;SDS011;67726;45.636;11.752;2024-02-16T09:21:02;68.57;;;43.22;;
78053;SDS011;67726;45.636;11.752;2024-02-16T09:23:29;65.40;;;43.03;;
78053;SDS011;67726;45.636;11.752;2024-02-16T09:25:55;64.72;;;41.30;;
78053;SDS011;67726;45.636;11.752;2024-02-16T09:28:21;62.78;;;38.08;;
78053;SDS011;67726;45.636;11.752;2024-02-16T09:30:47;68.43;;;41.13;;
78053;SDS011;67726;45.636;11.752;2024-02-16T09:33:12;64.32;;;41.42;;
78053;SDS011;67726;45.636;11.752;2024-02-16T09:35:41;68.88;;;42.85;;
78053;SDS011;67726;45.636;11.752;2024-02-16T09:38:07;64.93;;;41.75;;
78053;SDS011;67726;45.636;11.752;2024-02-16T09:40:35;59.50;;;38.13;;
78053;SDS011;67726;45.636;11.752;2024-02-16T09:43:01;65.67;;;42.63;;
78053;SDS011;67726;45.636;11.752;2024-02-16T09:45:27;71.03;;;44.63;;
78053;SDS011;67726;45.636;11.752;2024-02-16T09:47:54;65.55;;;42.97;;
78053;SDS011;67726;45.636;11.752;2024-02-16T09:50:20;67.03;;;44.85;;
78053;SDS011;67726;45.636;11.752;2024-02-16T09:52:46;70.07;;;45.00;;
78053;SDS011;67726;45.636;11.752;2024-02-16T09:55:13;67.03;;;43.33;;
78053;SDS011;67726;45.636;11.752;2024-02-16T09:57:40;64.22;;;41.53;;
78053;SDS011;67726;45.636;11.752;2024-02-16T10:00:06;62.70;;;42.50;;
78053;SDS011;67726;45.636;11.752;2024-02-16T10:05:16;58.70;;;39.53;;
78053;SDS011;67726;45.636;11.752;2024-02-16T10:07:43;61.25;;;39.67;;
78053;SDS011;67726;45.636;11.752;2024-02-16T10:10:25;60.33;;;39.58;;
78053;SDS011;67726;45.636;11.752;2024-02-16T10:13:01;60.75;;;39.55;;
78053;SDS011;67726;45.636;11.752;2024-02-16T10:15:29;62.33;;;41.30;;
78053;SDS011;67726;45.636;11.752;2024-02-16T10:17:58;57.90;;;40.28;;
78053;SDS011;67726;45.636;11.752;2024-02-16T10:20:24;59.00;;;39.67;;
78053;SDS011;67726;45.636;11.752;2024-02-16T10:22:50;59.60;;;41.77;;
78053;SDS011;67726;45.636;11.752;2024-02-16T10:25:27;63.63;;;38.92;;
78053;SDS011;67726;45.636;11.752;2024-02-16T10:27:53;60.08;;;38.45;;
78053;SDS011;67726;45.636;11.752;2024-02-16T10:30:20;61.70;;;38.93;;
78053;SDS011;67726;45.636;11.752;2024-02-16T10:32:49;59.88;;;38.88;;
78053;SDS011;67726;45.636;11.752;2024-02-16T10:35:15;53.97;;;37.03;;
78053;SDS011;67726;45.636;11.752;2024-02-16T10:37:42;54.10;;;34.77;;
78053;SDS011;67726;45.636;11.752;2024-02-16T10:40:10;50.20;;;34.65;;
78053;SDS011;67726;45.636;11.752;2024-02-16T10:42:38;52.33;;;33.33;;
78053;SDS011;67726;45.636;11.752;2024-02-16T10:45:05;50.97;;;35.17;;
78053;SDS011;67726;45.636;11.752;2024-02-16T10:47:31;50.13;;;34.63;;
78053;SDS011;67726;45.636;11.752;2024-02-16T10:49:57;50.50;;;34.60;;
78053;SDS011;67726;45.636;11.752;2024-02-16T10:52:23;59.67;;;37.70;;
78053;SDS011;67726;45.636;11.752;2024-02-16T10:54:50;55.70;;;35.17;;
78053;SDS011;67726;45.636;11.752;2024-02-16T10:57:16;49.55;;;33.45;;
78053;SDS011;67726;45.636;11.752;2024-02-16T10:59:42;52.20;;;33.65;;
78053;SDS011;67726;45.636;11.752;2024-02-16T11:02:09;52.72;;;34.05;;
78053;SDS011;67726;45.636;11.752;2024-02-16T11:04:36;48.40;;;34.17;;
78053;SDS011;67726;45.636;11.752;2024-02-16T11:07:11;54.35;;;35.40;;
78053;SDS011;67726;45.636;11.752;2024-02-16T11:09:40;55.33;;;36.13;;
78053;SDS011;67726;45.636;11.752;2024-02-16T11:12:07;57.88;;;36.03;;
78053;SDS011;67726;45.636;11.752;2024-02-16T11:14:46;60.05;;;37.95;;
78053;SDS011;67726;45.636;11.752;2024-02-16T11:17:21;52.00;;;33.40;;
78053;SDS011;67726;45.636;11.752;2024-02-16T11:19:48;54.58;;;33.72;;
78053;SDS011;67726;45.636;11.752;2024-02-16T11:22:15;52.28;;;32.97;;
78053;SDS011;67726;45.636;11.752;2024-02-16T11:24:53;54.88;;;33.47;;
78053;SDS011;67726;45.636;11.752;2024-02-16T11:27:19;57.10;;;35.15;;
78053;SDS011;67726;45.636;11.752;2024-02-16T11:29:45;56.73;;;34.17;;
78053;SDS011;67726;45.636;11.752;2024-02-16T11:32:11;53.65;;;33.85;;
78053;SDS011;67726;45.636;11.752;2024-02-16T11:34:37;53.35;;;32.13;;
78053;SDS011;67726;45.636;11.752;2024-02-16T11:37:03;53.57;;;30.90;;
78053;SDS011;67726;45.636;11.752;2024-02-16T11:39:32;53.80;;;33.15;;
78053;SDS011;67726;45.636;11.752;2024-02-16T11:42:04;54.33;;;32.40;;
78053;SDS011;67726;45.636;11.752;2024-02-16T11:44:33;58.78;;;34.72;;
78053;SDS011;67726;45.636;11.752;2024-02-16T11:47:01;57.27;;;35.07;;
78053;SDS011;67726;45.636;11.752;2024-02-16T11:49:31;57.65;;;34.47;;
78053;SDS011;67726;45.636;11.752;2024-02-16T11:51:59;65.63;;;36.38;;
78053;SDS011;67726;45.636;11.752;2024-02-16T11:54:25;59.47;;;34.60;;
78053;SDS011;67726;45.636;11.752;2024-02-16T11:56:51;61.27;;;37.10;;
78053;SDS011;67726;45.636;11.752;2024-02-16T11:59:17;66.10;;;38.70;;
78053;SDS011;67726;45.636;11.752;2024-02-16T12:01:57;57.22;;;35.38;;
78053;SDS011;67726;45.636;11.752;2024-02-16T12:04:24;60.97;;;36.03;;
78053;SDS011;67726;45.636;11.752;2024-02-16T12:06:55;59.47;;;34.38;;
78053;SDS011;67726;45.636;11.752;2024-02-16T12:09:24;65.30;;;37.83;;
78053;SDS011;67726;45.636;11.752;2024-02-16T12:11:54;57.95;;;34.85;;
78053;SDS011;67726;45.636;11.752;2024-02-16T12:14:21;63.22;;;37.65;;
78053;SDS011;67726;45.636;11.752;2024-02-16T12:16:48;63.78;;;38.33;;
78053;SDS011;67726;45.636;11.752;2024-02-16T12:19:15;61.58;;;37.25;;
78053;SDS011;67726;45.636;11.752;2024-02-16T12:21:41;71.30;;;39.30;;
78053;SDS011;67726;45.636;11.752;2024-02-16T12:24:07;65.85;;;38.42;;
78053;SDS011;67726;45.636;11.752;2024-02-16T12:26:33;62.55;;;36.88;;
78053;SDS011;67726;45.636;11.752;2024-02-16T12:28:58;60.33;;;36.53;;
78053;SDS011;67726;45.636;11.752;2024-02-16T12:31:24;57.55;;;33.25;;
78053;SDS011;67726;45.636;11.752;2024-02-16T12:33:51;63.60;;;38.80;;
78053;SDS011;67726;45.636;11.752;2024-02-16T12:36:17;59.58;;;35.33;;
78053;SDS011;67726;45.636;11.752;2024-02-16T12:38:43;61.13;;;35.88;;
78053;SDS011;67726;45.636;11.752;2024-02-16T12:41:09;58.00;;;34.63;;
78053;SDS011;67726;45.636;11.752;2024-02-16T12:43:35;60.10;;;35.57;;
78053;SDS011;67726;45.636;11.752;2024-02-16T12:46:01;61.60;;;34.67;;
78053;SDS011;67726;45.636;11.752;2024-02-16T12:48:29;57.92;;;35.08;;
78053;SDS011;67726;45.636;11.752;2024-02-16T12:50:55;62.00;;;35.07;;
78053;SDS011;67726;45.636;11.752;2024-02-16T12:53:22;53.72;;;30.52;;
78053;SDS011;67726;45.636;11.752;2024-02-16T12:55:49;50.95;;;29.92;;
78053;SDS011;67726;45.636;11.752;2024-02-16T12:58:15;54.60;;;30.70;;
78053;SDS011;67726;45.636;11.752;2024-02-16T13:00:41;55.73;;;31.57;;
78053;SDS011;67726;45.636;11.752;2024-02-16T13:03:07;53.83;;;31.48;;
78053;SDS011;67726;45.636;11.752;2024-02-16T13:05:33;53.80;;;32.20;;
78053;SDS011;67726;45.636;11.752;2024-02-16T13:07:58;57.08;;;32.45;;
78053;SDS011;67726;45.636;11.752;2024-02-16T13:10:24;51.70;;;30.55;;
78053;SDS011;67726;45.636;11.752;2024-02-16T13:12:50;56.57;;;32.47;;
78053;SDS011;67726;45.636;11.752;2024-02-16T13:15:16;51.38;;;31.40;;
78053;SDS011;67726;45.636;11.752;2024-02-16T13:17:41;57.73;;;33.30;;
78053;SDS011;67726;45.636;11.752;2024-02-16T13:20:07;60.65;;;34.70;;
78053;SDS011;67726;45.636;11.752;2024-02-16T13:22:37;54.60;;;33.83;;
78053;SDS011;67726;45.636;11.752;2024-02-16T13:25:04;57.27;;;33.17;;
78053;SDS011;67726;45.636;11.752;2024-02-16T13:27:31;54.47;;;32.08;;
78053;SDS011;67726;45.636;11.752;2024-02-16T13:29:57;58.00;;;33.75;;
78053;SDS011;67726;45.636;11.752;2024-02-16T13:32:23;57.95;;;34.13;;
78053;SDS011;67726;45.636;11.752;2024-02-16T13:34:49;59.07;;;35.77;;
78053;SDS011;67726;45.636;11.752;2024-02-16T13:37:14;61.85;;;35.38;;
78053;SDS011;67726;45.636;11.752;2024-02-16T13:39:40;65.03;;;35.80;;
78053;SDS011;67726;45.636;11.752;2024-02-16T13:42:06;65.47;;;36.58;;
78053;SDS011;67726;45.636;11.752;2024-02-16T13:44:31;66.00;;;36.73;;
78053;SDS011;67726;45.636;11.752;2024-02-16T13:46:57;63.40;;;35.13;;
78053;SDS011;67726;45.636;11.752;2024-02-16T13:49:23;65.80;;;37.13;;
78053;SDS011;67726;45.636;11.752;2024-02-16T13:51:48;66.05;;;37.75;;
78053;SDS011;67726;45.636;11.752;2024-02-16T13:54:14;66.10;;;36.40;;
78053;SDS011;67726;45.636;11.752;2024-02-16T13:56:40;63.85;;;36.38;;
78053;SDS011;67726;45.636;11.752;2024-02-16T13:59:06;61.27;;;35.00;;
78053;SDS011;67726;45.636;11.752;2024-02-16T14:01:32;66.00;;;36.78;;
78053;SDS011;67726;45.636;11.752;2024-02-16T14:03:59;67.82;;;37.38;;